createdAt,value
2024-05-09T00:00:36.475Z,12.60
2024-05-09T00:02:15.516Z,11.73
2024-05-09T00:03:49.235Z,11.35
2024-05-09T00:05:25.455Z,12.98
2024-05-09T00:07:01.455Z,12.70
2024-05-09T00:08:35.154Z,12.45
2024-05-09T00:10:18.279Z,9.88
2024-05-09T00:11:58.855Z,10.95
2024-05-09T00:13:35.138Z,11.63
2024-05-09T00:15:09.294Z,13.05
2024-05-09T00:16:48.609Z,11.77
2024-05-09T00:18:23.800Z,11.77
2024-05-09T00:20:00.069Z,13.10
2024-05-09T00:21:34.888Z,12.02
2024-05-09T00:23:12.407Z,10.95
2024-05-09T00:24:46.684Z,13.18
2024-05-09T00:26:23.062Z,11.20
2024-05-09T00:27:56.368Z,12.27
2024-05-09T00:29:32.622Z,11.88
2024-05-09T00:31:05.947Z,11.55
2024-05-09T00:32:44.638Z,10.52
2024-05-09T00:34:20.895Z,11.35
2024-05-09T00:35:54.185Z,11.30
2024-05-09T00:37:30.032Z,12.43
2024-05-09T00:39:03.616Z,10.45
2024-05-09T00:40:42.540Z,11.68
2024-05-09T00:42:19.522Z,10.35
2024-05-09T00:43:53.069Z,10.60
2024-05-09T00:45:28.875Z,10.73
2024-05-09T00:47:02.108Z,10.38
2024-05-09T00:48:40.842Z,11.30
2024-05-09T00:50:19.387Z,10.57
2024-05-09T00:52:02.376Z,10.02
2024-05-09T00:53:35.704Z,11.38
2024-05-09T00:55:12.120Z,11.32
2024-05-09T00:56:45.292Z,9.52
2024-05-09T00:58:25.785Z,9.55
2024-05-09T01:00:00.543Z,9.23
2024-05-09T01:01:37.142Z,10.02
2024-05-09T01:03:12.492Z,9.32
2024-05-09T01:04:53.567Z,10.32
2024-05-09T01:06:27.166Z,9.52
2024-05-09T01:08:03.450Z,11.65
2024-05-09T01:09:37.039Z,9.65
2024-05-09T01:11:12.983Z,8.10
2024-05-09T01:12:46.252Z,9.23
2024-05-09T01:14:22.572Z,9.52
2024-05-09T01:15:55.939Z,9.63
2024-05-09T01:17:32.384Z,9.50
2024-05-09T01:19:15.131Z,9.88
2024-05-09T01:20:53.778Z,9.15
2024-05-09T01:22:30.955Z,9.43
2024-05-09T01:24:07.287Z,8.57
2024-05-09T01:25:44.138Z,8.98
2024-05-09T01:27:18.119Z,8.68
2024-05-09T01:28:54.111Z,10.20
2024-05-09T01:30:34.178Z,10.50
2024-05-09T01:32:12.360Z,10.35
2024-05-09T01:33:45.927Z,10.95
2024-05-09T01:35:23.811Z,10.30
2024-05-09T01:36:59.684Z,12.18
2024-05-09T01:38:33.149Z,10.98
2024-05-09T01:40:18.421Z,12.60
2024-05-09T01:41:55.677Z,11.00
2024-05-09T01:43:31.733Z,11.10
2024-05-09T01:45:06.150Z,11.50
2024-05-09T01:46:42.041Z,13.40
2024-05-09T01:48:18.205Z,12.77
2024-05-09T01:49:51.824Z,13.00
2024-05-09T01:51:27.716Z,12.15
2024-05-09T01:53:01.205Z,12.90
2024-05-09T01:54:37.851Z,13.80
2024-05-09T01:56:16.460Z,13.32
2024-05-09T01:57:51.470Z,13.25
2024-05-09T01:59:27.812Z,11.88
2024-05-09T02:01:03.814Z,12.15
2024-05-09T02:02:37.111Z,11.60
2024-05-09T02:04:13.476Z,13.18
2024-05-09T02:05:50.509Z,13.48
2024-05-09T02:07:26.614Z,14.10
2024-05-09T02:08:59.938Z,12.45
2024-05-09T02:10:36.116Z,13.20
2024-05-09T02:12:15.059Z,13.77
2024-05-09T02:13:48.332Z,14.05
2024-05-09T02:15:24.590Z,14.88
2024-05-09T02:16:57.795Z,12.13
2024-05-09T02:18:33.719Z,14.30
2024-05-09T02:20:13.106Z,13.38
2024-05-09T02:21:51.922Z,14.18
2024-05-09T02:23:27.963Z,13.50
2024-05-09T02:25:04.449Z,13.98
2024-05-09T02:26:38.089Z,13.60
2024-05-09T02:28:16.947Z,11.35
2024-05-09T02:29:50.127Z,11.10
2024-05-09T02:31:26.463Z,10.50
2024-05-09T02:32:59.762Z,9.50
2024-05-09T02:34:35.755Z,9.73
2024-05-09T02:36:10.933Z,11.68
2024-05-09T02:37:46.914Z,10.52
2024-05-09T02:39:20.249Z,11.20
2024-05-09T02:40:53.797Z,10.23
2024-05-09T02:42:29.799Z,10.18
2024-05-09T02:44:08.612Z,11.23
2024-05-09T02:45:42.263Z,12.63
2024-05-09T02:47:18.253Z,10.90
2024-05-09T02:48:51.472Z,11.85
2024-05-09T02:50:34.157Z,12.15
2024-05-09T02:52:14.645Z,11.98
2024-05-09T02:53:47.858Z,11.10
2024-05-09T02:55:21.014Z,11.35
2024-05-09T02:56:57.297Z,14.55
2024-05-09T02:58:30.507Z,11.88
2024-05-09T03:00:12.112Z,14.98
2024-05-09T03:01:54.147Z,12.60
2024-05-09T03:03:27.985Z,13.75
2024-05-09T03:05:01.481Z,15.75
2024-05-09T03:06:37.446Z,12.85
2024-05-09T03:08:11.257Z,12.57
2024-05-09T03:09:49.653Z,15.23
2024-05-09T03:11:23.432Z,19.27
2024-05-09T03:12:59.251Z,12.23
2024-05-09T03:14:35.366Z,22.02
2024-05-09T03:16:11.197Z,12.55
2024-05-09T03:17:47.222Z,15.40
2024-05-09T03:19:22.765Z,13.65
2024-05-09T03:20:56.516Z,14.75
2024-05-09T03:22:32.230Z,13.07
2024-05-09T03:24:06.230Z,15.23
2024-05-09T03:25:39.711Z,17.17
2024-05-09T03:27:15.870Z,13.75
2024-05-09T03:28:48.867Z,13.90
2024-05-09T03:30:31.083Z,14.70
2024-05-09T03:32:18.482Z,12.75
2024-05-09T03:33:51.638Z,12.90
2024-05-09T03:35:24.906Z,13.63
2024-05-09T03:37:00.435Z,16.77
2024-05-09T03:38:38.411Z,10.60
2024-05-09T03:40:23.343Z,13.35
2024-05-09T03:41:59.141Z,11.13
2024-05-09T03:43:35.184Z,12.45
2024-05-09T03:45:08.781Z,11.90
2024-05-09T03:46:44.436Z,12.43
2024-05-09T03:48:20.472Z,11.25
2024-05-09T03:49:53.535Z,13.60
2024-05-09T03:51:29.574Z,13.90
2024-05-09T03:53:02.668Z,15.43
2024-05-09T03:54:35.750Z,14.27
2024-05-09T03:56:11.641Z,13.07
2024-05-09T03:57:45.018Z,14.25
2024-05-09T03:59:18.116Z,14.35
2024-05-09T04:00:53.706Z,12.95
2024-05-09T04:02:26.808Z,15.52
2024-05-09T04:04:05.741Z,13.27
2024-05-09T04:05:39.788Z,16.00
2024-05-09T04:07:16.065Z,12.68
2024-05-09T04:08:50.728Z,13.30
2024-05-09T04:10:31.323Z,12.25
2024-05-09T04:12:10.882Z,12.70
2024-05-09T04:13:44.429Z,13.18
2024-05-09T04:15:17.414Z,12.15
2024-05-09T04:16:53.496Z,15.90
2024-05-09T04:18:28.969Z,16.10
2024-05-09T04:20:08.325Z,15.30
2024-05-09T04:21:44.160Z,12.52
2024-05-09T04:23:17.693Z,12.40
2024-05-09T04:24:53.479Z,12.55
2024-05-09T04:26:29.204Z,11.90
2024-05-09T04:28:02.353Z,10.43
2024-05-09T04:29:37.927Z,15.07
2024-05-09T04:31:13.519Z,12.80
2024-05-09T04:32:46.698Z,11.70
2024-05-09T04:34:19.972Z,11.20
2024-05-09T04:35:58.964Z,10.43
2024-05-09T04:37:32.099Z,11.02
2024-05-09T04:39:05.076Z,10.82
2024-05-09T04:40:40.680Z,12.00
2024-05-09T04:42:14.220Z,10.63
2024-05-09T04:43:47.230Z,10.85
2024-05-09T04:45:22.933Z,11.35
2024-05-09T04:46:56.352Z,10.93
2024-05-09T04:48:32.558Z,11.02
2024-05-09T04:50:11.416Z,10.13
2024-05-09T04:51:47.314Z,10.27
2024-05-09T04:53:22.952Z,10.98
2024-05-09T04:54:58.960Z,9.80
2024-05-09T04:56:32.170Z,10.60
2024-05-09T04:58:10.780Z,11.95
2024-05-09T04:59:43.761Z,8.95
2024-05-09T05:01:19.894Z,10.75
2024-05-09T05:02:53.883Z,13.40
2024-05-09T05:04:27.068Z,10.00
2024-05-09T05:06:02.829Z,9.90
2024-05-09T05:07:38.932Z,11.23
2024-05-09T05:09:11.836Z,10.48
2024-05-09T05:10:48.872Z,11.32
2024-05-09T05:12:43.670Z,11.65
2024-05-09T05:14:16.825Z,10.70
2024-05-09T05:15:56.609Z,11.60
2024-05-09T05:17:31.004Z,12.77
2024-05-09T05:19:10.914Z,13.55
2024-05-09T05:20:45.276Z,10.25
2024-05-09T05:22:18.331Z,11.20
2024-05-09T05:23:56.548Z,10.57
2024-05-09T05:25:30.074Z,11.35
2024-05-09T05:27:03.111Z,11.45
2024-05-09T05:28:38.729Z,11.40
2024-05-09T05:30:17.871Z,10.52
2024-05-09T05:31:55.193Z,10.30
2024-05-09T05:33:31.136Z,11.05
2024-05-09T05:35:05.037Z,10.25
2024-05-09T05:36:38.086Z,11.27
2024-05-09T05:38:14.506Z,14.35
2024-05-09T05:39:52.591Z,11.07
2024-05-09T05:41:28.242Z,10.35
2024-05-09T05:43:01.285Z,10.15
2024-05-09T05:44:34.940Z,10.77
2024-05-09T05:46:10.698Z,10.63
2024-05-09T05:47:44.003Z,10.00
2024-05-09T05:49:17.321Z,10.50
2024-05-09T05:50:53.615Z,10.10
2024-05-09T05:52:26.652Z,9.85
2024-05-09T05:53:59.566Z,10.00
2024-05-09T05:55:38.039Z,9.48
2024-05-09T05:57:11.033Z,13.73
2024-05-09T05:58:46.675Z,9.68
2024-05-09T06:00:29.218Z,8.63
2024-05-09T06:02:09.696Z,9.67
2024-05-09T06:03:46.629Z,8.23
2024-05-09T06:05:21.544Z,7.33
2024-05-09T06:06:54.587Z,7.40
2024-05-09T06:08:30.640Z,6.00
2024-05-09T06:10:09.262Z,7.70
2024-05-09T06:11:49.807Z,6.77
2024-05-09T06:13:25.666Z,6.77
2024-05-09T06:15:00.482Z,5.87
2024-05-09T06:16:33.856Z,5.53
2024-05-09T06:18:11.482Z,5.83
2024-05-09T06:19:45.610Z,6.87
2024-05-09T06:21:18.702Z,5.43
2024-05-09T06:22:54.762Z,5.50
2024-05-09T06:24:27.870Z,6.07
2024-05-09T06:26:00.907Z,5.53
2024-05-09T06:27:39.259Z,4.93
2024-05-09T06:29:14.531Z,5.40
2024-05-09T06:30:50.057Z,5.07
2024-05-09T06:32:23.125Z,4.83
2024-05-09T06:33:58.388Z,4.80
2024-05-09T06:35:34.504Z,9.60
2024-05-09T06:37:08.027Z,4.93
2024-05-09T06:38:43.730Z,4.57
2024-05-09T06:40:21.423Z,4.97
2024-05-09T06:41:59.008Z,4.73
2024-05-09T06:43:37.381Z,4.73
2024-05-09T06:45:10.579Z,4.27
2024-05-09T06:46:45.300Z,4.67
2024-05-09T06:48:22.660Z,4.60
2024-05-09T06:49:56.110Z,4.40
2024-05-09T06:51:29.111Z,4.23
2024-05-09T06:53:04.741Z,4.03
2024-05-09T06:54:38.180Z,4.50
2024-05-09T06:56:13.859Z,3.83
2024-05-09T06:57:46.883Z,4.23
2024-05-09T06:59:24.967Z,3.63
2024-05-09T07:01:01.388Z,4.63
2024-05-09T07:02:34.423Z,4.40
2024-05-09T07:04:10.245Z,4.40
2024-05-09T07:05:43.669Z,4.27
2024-05-09T07:07:17.077Z,3.87
2024-05-09T07:08:54.148Z,3.90
2024-05-09T07:10:33.084Z,3.57
2024-05-09T07:12:08.768Z,4.03
2024-05-09T07:13:45.178Z,4.90
2024-05-09T07:15:20.965Z,4.47
2024-05-09T07:16:56.874Z,3.93
2024-05-09T07:18:31.940Z,4.50
2024-05-09T07:20:11.703Z,4.80
2024-05-09T07:21:44.942Z,4.70
2024-05-09T07:23:18.697Z,4.40
2024-05-09T07:24:55.849Z,4.33
2024-05-09T07:26:29.404Z,4.57
2024-05-09T07:28:04.072Z,4.70
2024-05-09T07:29:39.907Z,3.23
2024-05-09T07:31:16.042Z,3.77
2024-05-09T07:32:52.831Z,3.10
2024-05-09T07:34:25.911Z,3.10
2024-05-09T07:36:01.643Z,3.87
2024-05-09T07:37:34.605Z,4.30
2024-05-09T07:39:08.539Z,3.80
2024-05-09T07:40:44.230Z,3.50
2024-05-09T07:42:17.367Z,3.67
2024-05-09T07:43:52.950Z,3.60
2024-05-09T07:45:43.327Z,3.53
2024-05-09T07:48:56.515Z,3.30
2024-05-09T07:51:02.844Z,3.17
2024-05-09T07:53:34.626Z,3.57
2024-05-09T07:54:42.801Z,3.50
2024-05-09T07:56:16.654Z,3.30
2024-05-09T07:57:49.866Z,3.37
2024-05-09T07:59:25.515Z,3.53
2024-05-09T08:00:58.687Z,3.47
2024-05-09T08:02:34.798Z,3.27
2024-05-09T08:04:10.704Z,3.63
2024-05-09T08:05:43.812Z,3.27
2024-05-09T08:07:17.868Z,2.83
2024-05-09T08:08:54.200Z,3.30
2024-05-09T08:10:29.025Z,2.70
2024-05-09T08:12:02.361Z,3.13
2024-05-09T08:13:38.116Z,3.00
2024-05-09T08:15:12.007Z,3.00
2024-05-09T08:16:47.776Z,2.63
2024-05-09T08:18:23.681Z,3.07
2024-05-09T08:19:59.301Z,2.50
2024-05-09T08:21:32.854Z,3.10
2024-05-09T08:23:08.849Z,2.60
2024-05-09T08:24:42.634Z,3.30
2024-05-09T08:26:15.772Z,3.53
2024-05-09T08:27:51.913Z,2.70
2024-05-09T08:29:25.303Z,2.10
2024-05-09T08:30:58.341Z,2.13
2024-05-09T08:32:35.365Z,2.10
2024-05-09T08:34:12.691Z,2.27
2024-05-09T08:35:48.862Z,2.63
2024-05-09T08:37:27.844Z,2.30
2024-05-09T08:39:06.731Z,2.30
2024-05-09T08:40:39.812Z,1.80
2024-05-09T08:42:16.869Z,2.80
2024-05-09T08:43:52.589Z,2.30
2024-05-09T08:45:26.501Z,2.53
2024-05-09T08:47:00.328Z,2.23
2024-05-09T08:48:39.396Z,2.40
2024-05-09T08:50:28.375Z,2.33
2024-05-09T08:52:12.115Z,1.73
2024-05-09T08:53:45.259Z,2.77
2024-05-09T08:55:18.520Z,2.63
2024-05-09T08:56:54.783Z,2.57
2024-05-09T08:58:30.860Z,2.30
2024-05-09T09:00:10.001Z,2.20
2024-05-09T09:01:50.194Z,2.57
2024-05-09T09:03:26.875Z,3.00
2024-05-09T09:05:06.044Z,2.57
2024-05-09T09:06:46.270Z,1.80
2024-05-09T09:08:20.495Z,2.47
2024-05-09T09:09:54.571Z,2.30
2024-05-09T09:11:30.733Z,2.23
2024-05-09T09:13:05.103Z,2.57
2024-05-09T09:14:38.737Z,1.87
2024-05-09T09:16:14.321Z,2.30
2024-05-09T09:17:55.387Z,2.20
2024-05-09T09:19:28.535Z,2.10
2024-05-09T09:21:04.931Z,2.10
2024-05-09T09:22:40.558Z,1.93
2024-05-09T09:24:14.679Z,2.30
2024-05-09T09:25:50.533Z,2.00
2024-05-09T09:27:23.885Z,2.20
2024-05-09T09:29:01.213Z,2.20
2024-05-09T09:30:38.260Z,1.83
2024-05-09T09:32:11.915Z,1.90
2024-05-09T09:33:47.881Z,1.73
2024-05-09T09:35:22.776Z,1.87
2024-05-09T09:36:59.183Z,1.90
2024-05-09T09:38:39.840Z,1.90
2024-05-09T09:40:15.624Z,1.50
2024-05-09T09:41:52.080Z,1.60
2024-05-09T09:43:29.921Z,2.47
2024-05-09T09:45:05.572Z,2.30
2024-05-09T09:46:43.377Z,2.10
2024-05-09T09:48:17.120Z,2.30
2024-05-09T09:49:55.127Z,1.53
2024-05-09T09:51:31.144Z,2.40
2024-05-09T09:53:10.032Z,1.80
2024-05-09T09:54:48.620Z,2.10
2024-05-09T09:56:25.537Z,2.00
2024-05-09T09:58:01.491Z,1.90
2024-05-09T09:59:35.368Z,2.00
2024-05-09T10:01:11.210Z,1.80
2024-05-09T10:02:44.768Z,1.67
2024-05-09T10:04:21.014Z,1.93
2024-05-09T10:05:55.049Z,1.83
2024-05-09T10:07:29.703Z,1.97
2024-05-09T10:09:06.210Z,2.20
2024-05-09T10:10:47.582Z,1.93
2024-05-09T10:12:23.862Z,1.83
2024-05-09T10:13:57.594Z,1.70
2024-05-09T10:15:46.481Z,1.97
2024-05-09T10:17:20.933Z,1.80
2024-05-09T10:18:54.226Z,2.03
2024-05-09T10:20:32.661Z,2.07
2024-05-09T10:22:09.320Z,2.03
2024-05-09T10:23:44.433Z,2.30
2024-05-09T10:25:20.480Z,2.33
2024-05-09T10:26:56.230Z,2.20
2024-05-09T10:28:30.354Z,2.23
2024-05-09T10:30:14.625Z,1.90
2024-05-09T10:31:54.172Z,1.80
2024-05-09T10:33:37.133Z,1.77
2024-05-09T10:35:15.114Z,2.47
2024-05-09T10:36:55.245Z,2.10
2024-05-09T10:38:28.697Z,2.00
2024-05-09T10:40:11.937Z,1.83
2024-05-09T10:41:50.161Z,2.73
2024-05-09T10:43:26.070Z,2.03
2024-05-09T10:45:03.035Z,2.37
2024-05-09T10:46:38.142Z,2.13
2024-05-09T10:48:14.642Z,2.33
2024-05-09T10:49:48.758Z,1.80
2024-05-09T10:51:21.895Z,2.63
2024-05-09T10:52:57.939Z,2.20
2024-05-09T10:54:35.973Z,2.30
2024-05-09T10:56:09.509Z,2.20
2024-05-09T10:57:45.182Z,2.87
2024-05-09T10:59:21.200Z,2.60
2024-05-09T11:00:55.830Z,2.63
2024-05-09T11:02:32.087Z,2.70
2024-05-09T11:04:05.766Z,2.20
2024-05-09T11:05:45.814Z,2.57
2024-05-09T11:07:20.193Z,2.23
2024-05-09T11:08:56.003Z,1.70
2024-05-09T11:10:34.210Z,2.50
2024-05-09T11:12:09.348Z,2.10
2024-05-09T11:13:45.294Z,2.23
2024-05-09T11:15:20.946Z,2.50
2024-05-09T11:16:59.505Z,2.53
2024-05-09T11:18:38.851Z,1.80
2024-05-09T11:20:19.571Z,2.30
2024-05-09T11:22:02.816Z,2.00
2024-05-09T11:23:38.716Z,2.60
2024-05-09T11:25:11.862Z,2.23
2024-05-09T11:26:47.541Z,1.70
2024-05-09T11:28:24.532Z,1.77
2024-05-09T11:29:58.896Z,1.83
2024-05-09T11:31:48.438Z,2.20
2024-05-09T11:33:22.283Z,2.10
2024-05-09T11:34:55.256Z,1.70
2024-05-09T11:36:31.250Z,2.10
2024-05-09T11:38:04.783Z,2.20
2024-05-09T11:39:37.902Z,2.27
2024-05-09T11:41:19.589Z,2.10
2024-05-09T11:42:53.394Z,6.33
2024-05-09T11:44:26.921Z,2.50
2024-05-09T11:46:03.791Z,2.80
2024-05-09T11:47:39.898Z,1.73
2024-05-09T11:49:13.329Z,1.93
2024-05-09T11:50:49.019Z,2.73
2024-05-09T11:52:22.272Z,1.97
2024-05-09T11:53:55.653Z,2.27
2024-05-09T11:55:33.581Z,2.20
2024-05-09T11:57:06.746Z,2.40
2024-05-09T11:58:42.752Z,1.97
2024-05-09T12:00:28.915Z,2.17
2024-05-09T12:02:07.720Z,2.67
2024-05-09T12:03:46.586Z,2.60
2024-05-09T12:05:19.827Z,2.53
2024-05-09T12:06:55.749Z,2.17
2024-05-09T12:08:28.763Z,2.50
2024-05-09T12:10:02.355Z,2.20
2024-05-09T12:11:37.976Z,2.17
2024-05-09T12:13:11.252Z,2.30
2024-05-09T12:14:47.127Z,2.40
2024-05-09T12:16:20.743Z,3.30
2024-05-09T12:17:59.064Z,2.50
2024-05-09T12:19:37.688Z,2.20
2024-05-09T12:21:17.083Z,2.53
2024-05-09T12:22:50.215Z,2.40
2024-05-09T12:24:25.111Z,3.43
2024-05-09T12:26:01.039Z,2.60
2024-05-09T12:27:36.424Z,2.10
2024-05-09T12:29:09.537Z,3.30
2024-05-09T12:30:45.646Z,2.13
2024-05-09T12:32:18.834Z,2.37
2024-05-09T12:33:54.433Z,3.53
2024-05-09T12:35:33.192Z,3.50
2024-05-09T12:37:06.686Z,3.27
2024-05-09T12:38:41.082Z,2.43
2024-05-09T12:40:23.203Z,4.83
2024-05-09T12:42:05.479Z,2.27
2024-05-09T12:43:41.400Z,3.60
2024-05-09T12:45:14.454Z,2.43
2024-05-09T12:46:47.659Z,2.30
2024-05-09T12:48:23.596Z,2.80
2024-05-09T12:49:57.467Z,1.90
2024-05-09T12:51:36.150Z,2.57
2024-05-09T12:53:09.141Z,2.00
2024-05-09T12:54:42.273Z,2.33
2024-05-09T12:56:18.234Z,3.27
2024-05-09T12:57:51.448Z,2.40
2024-05-09T12:59:27.172Z,3.20
2024-05-09T13:01:00.559Z,2.20
2024-05-09T13:02:36.782Z,2.03
2024-05-09T13:04:09.983Z,2.70
2024-05-09T13:05:46.566Z,2.00
2024-05-09T13:07:22.653Z,2.03
2024-05-09T13:08:56.335Z,1.83
2024-05-09T13:10:33.437Z,3.90
2024-05-09T13:12:07.014Z,1.87
2024-05-09T13:13:43.030Z,2.30
2024-05-09T13:15:16.010Z,2.20
2024-05-09T13:16:49.115Z,2.47
2024-05-09T13:18:25.215Z,2.67
2024-05-09T13:19:58.454Z,2.53
2024-05-09T13:21:31.525Z,2.00
2024-05-09T13:23:10.013Z,2.17
2024-05-09T13:24:43.318Z,2.40
2024-05-09T13:26:18.777Z,2.47
2024-05-09T13:27:54.867Z,2.00
2024-05-09T13:29:28.314Z,2.17
2024-05-09T13:31:04.543Z,2.40
2024-05-09T13:32:37.808Z,3.47
2024-05-09T13:34:13.403Z,1.73
2024-05-09T13:35:50.984Z,4.30
2024-05-09T13:37:24.667Z,2.57
2024-05-09T13:39:00.846Z,1.70
2024-05-09T13:40:36.940Z,2.30
2024-05-09T13:42:10.079Z,2.00
2024-05-09T13:43:45.789Z,2.40
2024-05-09T13:45:18.763Z,2.30
2024-05-09T13:46:52.399Z,1.87
2024-05-09T13:48:28.760Z,2.20
2024-05-09T13:50:02.798Z,1.73
2024-05-09T13:51:38.228Z,2.07
2024-05-09T13:53:13.923Z,2.23
2024-05-09T13:54:49.559Z,2.10
2024-05-09T13:56:22.630Z,1.67
2024-05-09T13:57:58.943Z,2.17
2024-05-09T13:59:33.684Z,2.30
2024-05-09T14:01:07.314Z,2.10
2024-05-09T14:02:43.219Z,2.00
2024-05-09T14:04:17.787Z,2.10
2024-05-09T14:05:51.964Z,2.40
2024-05-09T14:07:28.104Z,2.27
2024-05-09T14:09:01.443Z,2.13
2024-05-09T14:10:44.039Z,2.27
2024-05-09T14:12:17.624Z,1.90
2024-05-09T14:13:53.358Z,2.13
2024-05-09T14:15:29.029Z,2.40
2024-05-09T14:17:02.170Z,2.53
2024-05-09T14:18:36.017Z,2.10
2024-05-09T14:20:14.203Z,2.23
2024-05-09T14:21:49.630Z,2.57
2024-05-09T14:23:24.817Z,2.10
2024-05-09T14:25:00.865Z,2.40
2024-05-09T14:26:37.223Z,1.57
2024-05-09T14:28:10.446Z,2.17
2024-05-09T14:29:46.005Z,2.23
2024-05-09T14:31:19.255Z,2.07
2024-05-09T14:32:52.458Z,2.53
2024-05-09T14:34:28.276Z,2.60
2024-05-09T14:36:01.591Z,2.60
2024-05-09T14:37:39.647Z,2.20
2024-05-09T14:39:12.716Z,2.37
2024-05-09T14:40:45.958Z,1.90
2024-05-09T14:42:24.454Z,2.03
2024-05-09T14:43:57.415Z,1.93
2024-05-09T14:45:30.543Z,2.27
2024-05-09T14:47:06.841Z,2.03
2024-05-09T14:48:42.493Z,1.80
2024-05-09T14:50:23.756Z,1.43
2024-05-09T14:52:04.283Z,2.00
2024-05-09T14:53:37.303Z,2.53
2024-05-09T14:55:12.308Z,2.43
2024-05-09T14:56:48.503Z,2.10
2024-05-09T14:58:24.733Z,2.50
2024-05-09T14:59:57.852Z,2.13
2024-05-09T15:01:33.827Z,1.83
2024-05-09T15:03:07.033Z,1.80
2024-05-09T15:04:41.962Z,2.23
2024-05-09T15:06:17.927Z,2.23
2024-05-09T15:07:51.212Z,2.00
2024-05-09T15:09:26.958Z,2.27
2024-05-09T15:11:00.021Z,2.70
2024-05-09T15:12:33.336Z,2.07
2024-05-09T15:14:11.989Z,2.30
2024-05-09T15:15:45.143Z,1.80
2024-05-09T15:17:18.375Z,1.77
2024-05-09T15:18:54.572Z,2.07
2024-05-09T15:20:34.387Z,2.20
2024-05-09T15:22:11.704Z,2.10
2024-05-09T15:23:47.991Z,1.93
2024-05-09T15:25:20.959Z,2.43
2024-05-09T15:26:54.250Z,2.90
2024-05-09T15:28:30.178Z,2.50
2024-05-09T15:30:10.517Z,2.10
2024-05-09T15:31:46.509Z,1.87
2024-05-09T15:33:21.475Z,3.33
2024-05-09T15:34:54.774Z,2.03
2024-05-09T15:36:30.367Z,1.80
2024-05-09T15:38:04.451Z,1.90
2024-05-09T15:39:40.467Z,2.27
2024-05-09T15:41:13.659Z,2.73
2024-05-09T15:42:49.513Z,2.33
2024-05-09T15:44:22.617Z,2.67
2024-05-09T15:45:58.685Z,1.73
2024-05-09T15:47:38.018Z,2.30
2024-05-09T15:49:11.697Z,2.60
2024-05-09T15:50:45.298Z,2.03
2024-05-09T15:52:21.144Z,2.37
2024-05-09T15:53:54.188Z,2.40
2024-05-09T15:55:28.189Z,1.50
2024-05-09T15:57:04.139Z,2.00
2024-05-09T15:58:37.347Z,1.97
2024-05-09T16:00:21.461Z,2.07
2024-05-09T16:02:04.126Z,2.77
2024-05-09T16:03:37.494Z,2.80
2024-05-09T16:05:10.705Z,2.20
2024-05-09T16:06:48.366Z,4.73
2024-05-09T16:08:21.634Z,1.90
2024-05-09T16:09:54.859Z,1.77
2024-05-09T16:11:30.549Z,2.10
2024-05-09T16:13:04.277Z,2.40
2024-05-09T16:14:37.458Z,1.87
2024-05-09T16:16:13.257Z,2.40
2024-05-09T16:17:49.088Z,1.97
2024-05-09T16:19:22.454Z,1.90
2024-05-09T16:21:00.320Z,1.60
2024-05-09T16:22:33.417Z,2.00
2024-05-09T16:24:07.298Z,2.63
2024-05-09T16:25:45.345Z,2.40
2024-05-09T16:27:19.297Z,2.33
2024-05-09T16:28:52.878Z,2.03
2024-05-09T16:30:34.503Z,1.90
2024-05-09T16:32:08.796Z,2.13
2024-05-09T16:33:47.623Z,1.90
2024-05-09T16:35:21.041Z,4.37
2024-05-09T16:36:56.084Z,2.63
2024-05-09T16:38:34.400Z,2.60
2024-05-09T16:40:21.406Z,1.87
2024-05-09T16:41:58.811Z,2.07
2024-05-09T16:43:34.474Z,2.20
2024-05-09T16:45:08.235Z,2.70
2024-05-09T16:46:41.492Z,3.03
2024-05-09T16:48:17.361Z,2.50
2024-05-09T16:49:53.131Z,2.23
2024-05-09T16:51:26.520Z,2.60
2024-05-09T16:53:02.482Z,2.30
2024-05-09T16:54:35.896Z,2.43
2024-05-09T16:56:11.491Z,3.67
2024-05-09T16:57:47.433Z,2.50
2024-05-09T16:59:23.150Z,3.57
2024-05-09T17:00:56.453Z,2.13
2024-05-09T17:02:32.692Z,2.30
2024-05-09T17:04:07.745Z,3.07
2024-05-09T17:05:45.969Z,2.07
2024-05-09T17:07:22.698Z,1.80
2024-05-09T17:08:59.094Z,3.67
2024-05-09T17:10:35.952Z,2.50
2024-05-09T17:12:11.906Z,2.23
2024-05-09T17:13:48.228Z,3.00
2024-05-09T17:15:24.027Z,4.63
2024-05-09T17:16:57.133Z,3.03
2024-05-09T17:18:33.522Z,2.40
2024-05-09T17:20:12.463Z,2.30
2024-05-09T17:21:53.842Z,6.00
2024-05-09T17:23:31.808Z,2.77
2024-05-09T17:25:09.365Z,2.13
2024-05-09T17:26:42.645Z,2.13
2024-05-09T17:28:15.884Z,2.37
2024-05-09T17:29:52.135Z,2.77
2024-05-09T17:31:25.291Z,2.33
2024-05-09T17:33:00.101Z,1.80
2024-05-09T17:34:35.895Z,2.60
2024-05-09T17:36:09.346Z,1.97
2024-05-09T17:37:47.591Z,3.23
2024-05-09T17:39:20.577Z,2.50
2024-05-09T17:40:56.598Z,2.07
2024-05-09T17:42:29.615Z,2.07
2024-05-09T17:44:05.050Z,2.63
2024-05-09T17:45:41.975Z,2.13
2024-05-09T17:47:15.492Z,3.00
2024-05-09T17:48:48.685Z,3.10
2024-05-09T17:50:31.216Z,2.40
2024-05-09T17:52:08.791Z,2.13
2024-05-09T17:53:47.999Z,3.20
2024-05-09T17:55:21.557Z,2.33
2024-05-09T17:56:54.841Z,2.47
2024-05-09T17:58:30.679Z,3.00
2024-05-09T18:00:07.031Z,2.90
2024-05-09T18:01:44.676Z,2.57
2024-05-09T18:03:20.362Z,2.80
2024-05-09T18:04:53.450Z,2.27
2024-05-09T18:06:26.603Z,3.23
2024-05-09T18:08:02.460Z,3.10
2024-05-09T18:09:38.023Z,3.63
2024-05-09T18:11:13.798Z,2.83
2024-05-09T18:12:47.094Z,2.90
2024-05-09T18:14:20.499Z,3.10
2024-05-09T18:15:56.121Z,2.63
2024-05-09T18:17:29.478Z,3.27
2024-05-09T18:19:05.413Z,2.50
2024-05-09T18:20:44.832Z,2.40
2024-05-09T18:22:19.165Z,3.20
2024-05-09T18:23:58.062Z,3.10
2024-05-09T18:25:35.236Z,2.90
2024-05-09T18:27:11.371Z,2.77
2024-05-09T18:28:45.214Z,2.70
2024-05-09T18:30:27.428Z,2.97
2024-05-09T18:32:08.128Z,2.97
2024-05-09T18:33:44.085Z,3.27
2024-05-09T18:35:17.121Z,3.20
2024-05-09T18:36:52.894Z,2.77
2024-05-09T18:38:27.157Z,3.63
2024-05-09T18:40:00.705Z,4.20
2024-05-09T18:41:38.979Z,4.00
2024-05-09T18:43:12.145Z,3.10
2024-05-09T18:44:45.905Z,3.63
2024-05-09T18:46:21.437Z,3.30
2024-05-09T18:47:55.222Z,3.83
2024-05-09T18:49:28.415Z,3.80
2024-05-09T18:51:05.627Z,4.13
2024-05-09T18:52:39.138Z,4.13
2024-05-09T18:54:12.803Z,2.80
2024-05-09T18:55:48.815Z,4.50
2024-05-09T18:57:24.932Z,4.37
2024-05-09T18:58:57.888Z,3.20
2024-05-09T19:00:37.046Z,3.20
2024-05-09T19:02:13.580Z,2.30
2024-05-09T19:03:50.454Z,2.80
2024-05-09T19:05:23.814Z,3.30
2024-05-09T19:06:59.078Z,3.17
2024-05-09T19:08:34.575Z,2.87
2024-05-09T19:10:21.511Z,3.40
2024-05-09T19:11:56.587Z,3.57
2024-05-09T19:13:34.998Z,2.97
2024-05-09T19:15:08.724Z,3.20
2024-05-09T19:16:42.281Z,3.20
2024-05-09T19:18:17.991Z,4.00
2024-05-09T19:19:52.543Z,3.57
2024-05-09T19:21:25.659Z,3.40
2024-05-09T19:23:01.488Z,4.70
2024-05-09T19:24:34.616Z,4.33
2024-05-09T19:26:08.506Z,4.73
2024-05-09T19:27:45.078Z,5.43
2024-05-09T19:29:21.127Z,3.83
2024-05-09T19:30:54.145Z,4.77
2024-05-09T19:32:29.842Z,5.07
2024-05-09T19:34:02.914Z,5.40
2024-05-09T19:35:36.356Z,4.73
2024-05-09T19:37:12.295Z,4.60
2024-05-09T19:38:45.568Z,6.07
2024-05-09T19:40:25.073Z,6.60
2024-05-09T19:42:07.641Z,5.77
2024-05-09T19:43:41.099Z,6.07
2024-05-09T19:45:20.283Z,6.33
2024-05-09T19:46:53.596Z,6.60
2024-05-09T19:48:29.923Z,6.63
2024-05-09T19:50:04.001Z,7.10
2024-05-09T19:51:39.415Z,7.50
2024-05-09T19:53:15.333Z,6.30
2024-05-09T19:54:50.115Z,7.20
2024-05-09T19:56:23.246Z,6.93
2024-05-09T19:58:00.028Z,4.82
2024-05-09T19:59:34.037Z,3.27
2024-05-09T20:01:10.202Z,4.68
2024-05-09T20:02:46.023Z,5.80
2024-05-09T20:04:19.165Z,5.07
2024-05-09T20:05:55.111Z,4.57
2024-05-09T20:07:28.867Z,5.20
2024-05-09T20:09:01.811Z,5.70
2024-05-09T20:10:37.551Z,5.15
2024-05-09T20:12:10.951Z,4.07
2024-05-09T20:13:44.465Z,4.20
2024-05-09T20:15:20.079Z,4.55
2024-05-09T20:16:57.207Z,4.90
2024-05-09T20:18:33.120Z,5.10
2024-05-09T20:20:13.715Z,5.63
2024-05-09T20:21:53.272Z,5.05
2024-05-09T20:23:29.211Z,7.40
2024-05-09T20:25:02.169Z,6.57
2024-05-09T20:26:35.625Z,5.97
2024-05-09T20:28:11.512Z,5.60
2024-05-09T20:29:44.863Z,5.18
2024-05-09T20:31:21.578Z,4.63
2024-05-09T20:33:00.816Z,5.07
2024-05-09T20:34:34.102Z,3.95
2024-05-09T20:36:07.331Z,5.03
2024-05-09T20:37:42.956Z,4.50
2024-05-09T20:39:18.207Z,4.65
2024-05-09T20:40:53.387Z,5.22
2024-05-09T20:42:29.066Z,4.65
2024-05-09T20:44:03.579Z,5.00
2024-05-09T20:45:37.204Z,5.45
2024-05-09T20:47:12.956Z,4.95
2024-05-09T20:48:48.713Z,5.55
2024-05-09T20:50:29.159Z,5.25
2024-05-09T20:52:12.872Z,5.53
2024-05-09T20:53:46.959Z,7.30
2024-05-09T20:55:21.768Z,5.63
2024-05-09T20:56:57.491Z,7.45
2024-05-09T20:58:31.140Z,7.32
2024-05-09T21:00:12.048Z,6.50
2024-05-09T21:01:51.073Z,8.38
2024-05-09T21:03:27.641Z,6.88
2024-05-09T21:05:04.295Z,6.00
2024-05-09T21:06:40.247Z,6.38